Time;durP1;ratioP1;P1;durP2;ratioP2;P2;SDS_P1;SDS_P2;PMS_P1;PMS_P2;Temp;Humidity;BMP_temperature;BMP_pressure;BME280_temperature;BME280_humidity;BME280_pressure;Samples;Min_cycle;Max_cycle;Signal;HPM_P1;HPM_P2
2024/02/17 00:02:57;;;;;;;13.98;12.05;;;;;;;9.72;100.00;101910.91;10359488;27;20059;-73
2024/02/17 00:07:53;;;;;;;15.45;12.35;;;;;;;9.65;100.00;101916.66;10363363;27;20539;-73
2024/02/17 00:12:50;;;;;;;14.93;10.65;;;;;;;9.64;100.00;101925.97;10350336;27;20044;-73
2024/02/17 00:17:46;;;;;;;14.82;11.68;;;;;;;9.45;100.00;101934.81;10347685;27;20063;-73
2024/02/17 00:22:43;;;;;;;15.57;12.15;;;;;;;9.31;100.00;101939.25;10352214;27;20439;-73
2024/02/17 00:27:40;;;;;;;18.73;12.15;;;;;;;9.10;100.00;101948.56;10345549;28;20415;-73
2024/02/17 00:32:36;;;;;;;20.80;12.40;;;;;;;9.08;100.00;101956.25;10341183;27;20052;-73
2024/02/17 00:37:33;;;;;;;17.60;11.65;;;;;;;8.96;100.00;101949.19;10348159;27;20051;-74
2024/02/17 00:42:29;;;;;;;15.55;12.02;;;;;;;8.83;100.00;101949.75;10353101;27;20040;-73
2024/02/17 00:47:26;;;;;;;20.92;13.02;;;;;;;8.88;100.00;101962.56;10345828;27;20123;-74
2024/02/17 00:52:22;;;;;;;22.80;13.05;;;;;;;8.83;100.00;101966.09;10351133;27;20063;-74
2024/02/17 00:57:19;;;;;;;17.35;12.75;;;;;;;8.72;100.00;101965.28;10338435;27;20435;-74
2024/02/17 01:02:16;;;;;;;18.77;12.70;;;;;;;8.63;100.00;101978.69;10346051;27;20092;-73
2024/02/17 01:07:12;;;;;;;15.75;11.70;;;;;;;8.59;100.00;101983.03;10350548;27;20040;-73
2024/02/17 01:12:09;;;;;;;17.05;10.70;;;;;;;8.45;100.00;101981.97;10345783;28;20121;-73
2024/02/17 01:17:06;;;;;;;13.93;11.18;;;;;;;8.24;100.00;101997.44;10343074;27;20052;-73
2024/02/17 01:22:02;;;;;;;12.82;10.25;;;;;;;8.22;100.00;101977.84;10344248;27;20040;-73
2024/02/17 01:26:59;;;;;;;14.70;10.90;;;;;;;8.28;100.00;101982.16;10345354;27;20063;-72
2024/02/17 01:31:57;;;;;;;16.27;11.25;;;;;;;8.30;100.00;101996.34;10347764;27;20070;-73
2024/02/17 01:36:53;;;;;;;16.92;10.30;;;;;;;8.18;100.00;102009.41;10350672;27;20050;-73
2024/02/17 01:41:50;;;;;;;12.13;10.70;;;;;;;8.38;100.00;101997.75;10343280;28;20158;-74
2024/02/17 01:46:52;;;;;;;12.50;9.90;;;;;;;8.12;100.00;102003.16;10360171;27;20059;-72
2024/02/17 01:51:49;;;;;;;12.23;9.40;;;;;;;8.13;100.00;102007.50;10354361;27;20044;-73
2024/02/17 01:56:46;;;;;;;17.77;10.48;;;;;;;8.09;100.00;102011.84;10348971;28;20860;-71
2024/02/17 02:01:46;;;;;;;18.42;10.95;;;;;;;8.04;100.00;102011.84;10337874;28;20036;-71
2024/02/17 02:06:42;;;;;;;14.07;9.40;;;;;;;7.93;100.00;102024.59;10363607;27;21057;-72
2024/02/17 02:11:39;;;;;;;10.40;7.47;;;;;;;7.62;100.00;102020.97;10348255;27;20072;-71
2024/02/17 02:16:36;;;;;;;10.27;7.50;;;;;;;7.63;100.00;102014.44;10347026;27;20056;-71
2024/02/17 02:21:37;;;;;;;12.70;7.85;;;;;;;7.51;100.00;102011.13;10340950;27;20074;-74
2024/02/17 02:26:34;;;;;;;10.27;7.28;;;;;;;7.47;100.00;102020.88;10338537;27;20036;-70
2024/02/17 02:31:30;;;;;;;12.00;7.32;;;;;;;7.55;100.00;102020.41;10332359;27;20097;-72
2024/02/17 02:36:27;;;;;;;7.90;7.10;;;;;;;7.47;100.00;102034.50;10343604;27;20430;-71
2024/02/17 02:41:24;;;;;;;7.45;6.53;;;;;;;7.50;100.00;102036.72;10339795;27;20055;-71
2024/02/17 02:46:20;;;;;;;7.90;6.53;;;;;;;7.32;100.00;102049.66;10343742;27;20410;-71
2024/02/17 02:51:17;;;;;;;6.60;5.95;;;;;;;7.17;100.00;102027.78;10344288;27;20070;-71
2024/02/17 02:56:13;;;;;;;7.15;6.22;;;;;;;7.24;100.00;102016.69;10346813;27;20055;-71
2024/02/17 03:01:10;;;;;;;8.18;5.55;;;;;;;7.18;100.00;102018.56;10346817;27;20078;-73
2024/02/17 03:06:07;;;;;;;7.90;6.00;;;;;;;7.25;100.00;102021.06;10341660;27;20044;-72
2024/02/17 03:11:03;;;;;;;6.20;5.60;;;;;;;7.19;100.00;102014.75;10356470;27;20051;-72
2024/02/17 03:16:00;;;;;;;9.32;5.50;;;;;;;7.13;100.00;102027.53;10346946;27;20051;-72
2024/02/17 03:20:56;;;;;;;6.22;5.65;;;;;;;6.80;100.00;102044.13;10353640;27;20493;-73
2024/02/17 03:25:53;;;;;;;6.25;5.20;;;;;;;6.72;100.00;102053.59;10355849;27;20044;-73
2024/02/17 03:30:49;;;;;;;5.55;5.05;;;;;;;6.62;100.00;102064.38;10346246;27;20102;-71
2024/02/17 03:35:46;;;;;;;5.55;5.10;;;;;;;6.43;100.00;102072.06;10348430;28;20044;-72
2024/02/17 03:40:42;;;;;;;5.50;5.10;;;;;;;6.37;100.00;102089.41;10345727;27;20047;-72
2024/02/17 03:45:39;;;;;;;5.80;5.30;;;;;;;6.30;100.00;102100.47;10345701;27;20043;-72
2024/02/17 03:50:36;;;;;;;6.22;5.70;;;;;;;6.37;100.00;102101.09;10356433;27;20474;-72
2024/02/17 03:55:32;;;;;;;6.53;5.93;;;;;;;6.32;100.00;102109.19;10353351;27;20392;-72
2024/02/17 04:00:29;;;;;;;6.10;5.60;;;;;;;6.33;100.00;102121.69;10353061;27;20119;-72
2024/02/17 04:05:25;;;;;;;5.90;5.25;;;;;;;6.37;100.00;102132.88;10343733;27;20063;-72
2024/02/17 04:10:22;;;;;;;5.45;5.05;;;;;;;6.28;100.00;102135.22;10356924;27;20055;-71
2024/02/17 04:15:21;;;;;;;6.38;5.50;;;;;;;6.21;100.00;102146.25;10350332;27;20074;-70
2024/02/17 04:20:17;;;;;;;5.20;4.70;;;;;;;6.20;100.00;102160.94;10353383;27;20128;-71
2024/02/17 04:25:17;;;;;;;5.43;4.93;;;;;;;6.16;100.00;102158.97;10349151;27;20503;-71
2024/02/17 04:30:13;;;;;;;5.50;5.10;;;;;;;6.22;100.00;102169.66;10342515;27;20097;-71
2024/02/17 04:35:10;;;;;;;5.60;5.10;;;;;;;6.13;100.00;102181.19;10356480;27;20089;-71
2024/02/17 04:40:07;;;;;;;5.88;5.20;;;;;;;5.95;100.00;102199.44;10350548;27;20135;-72
2024/02/17 04:45:04;;;;;;;5.97;5.50;;;;;;;5.96;100.00;102213.81;10344888;27;20056;-72
2024/02/17 04:50:01;;;;;;;5.78;5.38;;;;;;;5.65;100.00;102219.59;10350288;28;20055;-73
2024/02/17 04:54:57;;;;;;;5.25;4.85;;;;;;;5.52;100.00;102222.63;10355254;28;20048;-72
2024/02/17 04:59:54;;;;;;;7.97;5.30;;;;;;;5.61;100.00;102234.72;10345028;27;20571;-72
2024/02/17 05:04:50;;;;;;;5.95;5.45;;;;;;;5.52;100.00;102262.50;10351673;27;20036;-72
2024/02/17 05:09:47;;;;;;;7.13;6.45;;;;;;;5.47;100.00;102260.53;10342990;27;20067;-72
2024/02/17 05:14:43;;;;;;;7.20;6.55;;;;;;;5.48;100.00;102286.63;10349574;27;20105;-72
2024/02/17 05:19:41;;;;;;;8.25;6.70;;;;;;;5.55;100.00;102311.69;10349875;28;20040;-72
2024/02/17 05:24:38;;;;;;;7.28;6.68;;;;;;;5.49;100.00;102323.50;10350317;27;20483;-72
2024/02/17 05:29:34;;;;;;;6.60;6.20;;;;;;;5.47;100.00;102358.19;10342930;27;20036;-73
2024/02/17 05:34:32;;;;;;;6.82;6.32;;;;;;;5.47;100.00;86917.19;10353682;27;20556;-73
2024/02/17 05:39:31;;;;;;;7.25;6.65;;;;;;;5.56;100.00;102367.59;10333361;27;20043;-72
2024/02/17 05:44:27;;;;;;;7.70;7.00;;;;;;;5.54;100.00;102380.56;10343114;27;20467;-72
2024/02/17 05:49:24;;;;;;;8.02;7.20;;;;;;;5.34;100.00;102388.31;10341307;27;20048;-73
2024/02/17 05:54:21;;;;;;;8.23;7.57;;;;;;;5.20;100.00;102391.34;10344248;28;20075;-72
2024/02/17 05:59:17;;;;;;;8.60;7.80;;;;;;;5.15;100.00;102393.09;10344436;28;20048;-74
2024/02/17 06:04:14;;;;;;;8.10;7.47;;;;;;;5.12;100.00;102409.88;10352822;27;20064;-73
2024/02/17 06:09:11;;;;;;;13.27;7.80;;;;;;;5.15;100.00;102421.06;10346395;27;20040;-71
2024/02/17 06:14:07;;;;;;;8.57;7.78;;;;;;;5.23;100.00;102428.81;10349981;27;20048;-71
2024/02/17 06:24:19;;;;;;;11.10;7.00;;;;;;;5.44;100.00;102456.34;10350833;27;20134;-70
2024/02/17 06:29:16;;;;;;;7.88;7.10;;;;;;;5.54;100.00;102467.41;10357826;27;20051;-70
2024/02/17 06:34:12;;;;;;;9.43;7.57;;;;;;;5.63;100.00;102484.94;10352334;27;20048;-71
2024/02/17 06:39:09;;;;;;;11.40;6.78;;;;;;;5.56;100.00;102492.41;10345087;27;20043;-70
2024/02/17 06:44:05;;;;;;;8.68;7.40;;;;;;;5.58;100.00;102512.00;10346452;27;20655;-70
2024/02/17 06:49:02;;;;;;;10.25;7.32;;;;;;;5.69;100.00;102510.31;10343590;27;20055;-70
2024/02/17 06:53:59;;;;;;;9.68;7.00;;;;;;;5.59;100.00;102527.22;10345660;27;20051;-70
2024/02/17 06:58:55;;;;;;;7.72;6.95;;;;;;;5.64;100.00;102532.75;10345765;27;20079;-72
2024/02/17 07:03:52;;;;;;;9.48;6.53;;;;;;;5.65;100.00;102539.00;10345550;27;20536;-70
2024/02/17 07:08:48;;;;;;;17.58;7.43;;;;;;;5.71;100.00;102546.19;10345147;27;20040;-70
2024/02/17 07:13:45;;;;;;;7.38;6.50;;;;;;;5.67;100.00;102553.16;10349058;27;20045;-68
2024/02/17 07:18:43;;;;;;;10.90;6.63;;;;;;;5.68;100.00;102550.19;10352998;28;20073;-70
2024/02/17 07:23:40;;;;;;;11.57;6.47;;;;;;;5.74;100.00;102551.13;10358730;27;20047;-70
2024/02/17 07:28:38;;;;;;;8.60;6.43;;;;;;;5.76;100.00;102561.75;10350929;27;20040;-69
2024/02/17 07:33:34;;;;;;;17.92;6.95;;;;;;;5.74;100.00;102574.75;10351150;27;20075;-70
2024/02/17 07:38:31;;;;;;;18.88;6.05;;;;;;;5.79;100.00;102577.56;10359130;27;20083;-70
2024/02/17 07:43:28;;;;;;;15.32;6.50;;;;;;;5.81;100.00;102587.09;10349502;28;20159;-70
2024/02/17 07:48:24;;;;;;;13.25;6.53;;;;;;;5.77;100.00;102595.97;10351609;27;20036;-70
2024/02/17 07:53:21;;;;;;;16.38;7.07;;;;;;;5.84;100.00;102607.50;10347004;27;20465;-70
2024/02/17 07:58:18;;;;;;;15.77;7.05;;;;;;;5.86;100.00;102616.25;10351452;27;20044;-71
2024/02/17 08:03:14;;;;;;;11.40;6.03;;;;;;;5.95;100.00;102622.16;10343906;27;20040;-70
2024/02/17 08:08:11;;;;;;;18.58;6.68;;;;;;;5.89;100.00;102626.63;10347929;27;20507;-70
2024/02/17 08:13:08;;;;;;;11.15;6.45;;;;;;;5.97;100.00;102629.00;10344606;28;20048;-71
2024/02/17 08:18:05;;;;;;;13.48;5.70;;;;;;;5.97;100.00;102629.00;10338080;27;20094;-70
2024/02/17 08:23:02;;;;;;;11.18;5.40;;;;;;;5.89;100.00;102642.91;10359172;27;20052;-69
2024/02/17 08:27:59;;;;;;;12.70;5.85;;;;;;;5.87;100.00;102658.59;10350348;27;20048;-70
2024/02/17 08:32:56;;;;;;;11.65;5.90;;;;;;;6.00;100.00;102660.28;10352130;27;20419;-70
2024/02/17 08:37:52;;;;;;;12.48;6.28;;;;;;;6.03;100.00;102676.91;10346508;27;20051;-71
2024/02/17 08:42:50;;;;;;;21.23;6.53;;;;;;;6.08;100.00;102701.47;10339134;28;20055;-71
2024/02/17 08:47:46;;;;;;;10.07;5.75;;;;;;;5.99;100.00;102691.22;10341606;27;20044;-70
2024/02/17 08:52:43;;;;;;;15.98;6.22;;;;;;;6.08;100.00;102698.75;10338781;27;20044;-71
2024/02/17 08:57:39;;;;;;;12.07;6.18;;;;;;;6.24;100.00;102699.06;10344640;27;20048;-71
2024/02/17 09:02:36;;;;;;;9.65;5.45;;;;;;;6.24;100.00;102723.50;10344656;27;20040;-72
2024/02/17 09:07:33;;;;;;;14.32;6.20;;;;;;;6.23;100.00;102740.88;10341852;27;20510;-71
2024/02/17 09:12:30;;;;;;;18.27;6.88;;;;;;;6.29;100.00;102734.50;10336411;27;20478;-71
2024/02/17 09:17:28;;;;;;;12.38;5.50;;;;;;;6.37;100.00;102753.13;10342087;27;20047;-70
2024/02/17 09:22:24;;;;;;;16.25;6.38;;;;;;;6.25;100.00;102760.50;10335442;27;20051;-71
2024/02/17 09:27:21;;;;;;;21.33;5.88;;;;;;;6.34;100.00;102772.66;10336868;28;20177;-69
2024/02/17 09:32:17;;;;;;;20.27;5.85;;;;;;;6.29;100.00;102777.97;10347886;27;20530;-71
2024/02/17 09:37:14;;;;;;;9.48;6.25;;;;;;;6.33;100.00;102781.84;10345161;27;20423;-71
2024/02/17 09:42:10;;;;;;;15.63;6.88;;;;;;;6.45;100.00;102798.13;10344653;27;20047;-71
2024/02/17 09:47:07;;;;;;;18.35;6.75;;;;;;;6.45;100.00;102798.97;10338281;27;20050;-71
2024/02/17 09:52:04;;;;;;;13.65;5.65;;;;;;;6.58;100.00;102792.44;10348125;27;20040;-70
2024/02/17 09:57:03;;;;;;;12.10;5.95;;;;;;;6.92;100.00;102804.28;10345270;28;20048;-70
2024/02/17 10:01:59;;;;;;;13.77;5.82;;;;;;;6.45;100.00;102820.72;10350584;27;20071;-71
2024/02/17 10:07:00;;;;;;;19.10;6.40;;;;;;;6.55;100.00;102835.59;10345158;27;20059;-71
2024/02/17 10:11:58;;;;;;;10.35;6.10;;;;;;;6.58;100.00;102825.06;10346447;27;20044;-73
2024/02/17 10:16:58;;;;;;;18.05;6.03;;;;;;;6.53;100.00;102828.50;10352072;27;20703;-71
2024/02/17 10:21:55;;;;;;;9.10;5.50;;;;;;;6.89;100.00;102847.44;10350032;27;20047;-72
2024/02/17 10:26:53;;;;;;;20.67;6.20;;;;;;;6.66;100.00;102849.16;10352991;27;20519;-71
2024/02/17 10:31:49;;;;;;;22.17;5.82;;;;;;;7.33;100.00;102855.91;10345349;27;20101;-70
2024/02/17 10:36:46;;;;;;;11.75;6.05;;;;;;;7.03;100.00;102864.31;10351323;27;20089;-70
2024/02/17 10:41:45;;;;;;;23.08;8.25;;;;;;;7.05;100.00;102862.19;10345917;27;20049;-70
2024/02/17 10:46:45;;;;;;;20.10;7.47;;;;;;;6.80;100.00;102870.63;10346584;28;20074;-70
2024/02/17 10:51:57;;;;;;;15.93;6.00;;;;;;;7.10;100.00;102886.75;10352800;27;20131;-70
2024/02/17 10:56:55;;;;;;;25.15;6.25;;;;;;;7.41;100.00;102881.94;10344830;27;20045;-71
2024/02/17 11:01:55;;;;;;;18.30;7.47;;;;;;;7.21;100.00;102875.00;10348444;27;20052;-71
2024/02/17 11:06:52;;;;;;;17.17;6.60;;;;;;;7.54;100.00;102892.50;10352400;27;20050;-70
2024/02/17 11:11:50;;;;;;;17.08;6.47;;;;;;;7.52;100.00;102886.47;10342582;27;20036;-70
2024/02/17 11:16:46;;;;;;;15.93;6.07;;;;;;;7.56;100.00;102901.25;10352399;27;20044;-71
2024/02/17 11:21:45;;;;;;;15.57;6.30;;;;;;;7.46;100.00;102906.53;10346575;28;20048;-72
2024/02/17 11:26:42;;;;;;;14.07;6.55;;;;;;;7.42;100.00;102921.69;10346584;27;20485;-71
2024/02/17 11:31:42;;;;;;;14.15;6.38;;;;;;;7.36;100.00;102921.59;10348214;28;20044;-72
2024/02/17 11:36:39;;;;;;;19.17;6.25;;;;;;;7.40;100.00;102940.13;10346789;27;20040;-71
2024/02/17 11:41:36;;;;;;;13.75;5.80;;;;;;;7.16;100.00;102959.25;10352172;27;20061;-71
2024/02/17 11:46:34;;;;;;;21.42;6.90;;;;;;;7.42;100.00;102932.56;10353702;27;20059;-70
2024/02/17 11:51:32;;;;;;;16.80;6.55;;;;;;;7.72;100.00;102938.59;10355079;27;20495;-71
2024/02/17 11:56:28;;;;;;;18.75;5.80;;;;;;;7.83;100.00;102949.69;10355723;27;20052;-70
2024/02/17 12:01:26;;;;;;;19.35;6.97;;;;;;;7.91;100.00;102941.09;10356616;27;20607;-70
2024/02/17 12:06:25;;;;;;;22.92;6.63;;;;;;;7.64;100.00;102949.06;10353413;27;20048;-70
2024/02/17 12:11:22;;;;;;;19.00;6.35;;;;;;;7.48;100.00;102947.94;10347473;27;20044;-70
2024/02/17 12:16:18;;;;;;;25.55;6.88;;;;;;;7.53;100.00;102956.19;10351623;27;20460;-71
2024/02/17 12:21:16;;;;;;;14.82;5.60;;;;;;;8.16;100.00;102955.16;10362427;27;20048;-70
2024/02/17 12:26:14;;;;;;;19.73;6.57;;;;;;;7.70;100.00;102957.06;10345057;27;20051;-70
2024/02/17 12:31:24;;;;;;;15.50;6.05;;;;;;;7.32;100.00;102972.13;10344287;27;20056;-70
2024/02/17 12:36:22;;;;;;;11.55;6.30;;;;;;;7.66;100.00;102972.25;10359788;28;20043;-71
2024/02/17 12:41:19;;;;;;;21.73;7.10;;;;;;;8.09;100.00;102965.41;10355442;27;20445;-71
2024/02/17 12:46:20;;;;;;;18.58;6.25;;;;;;;7.65;100.00;102986.91;10360929;27;20067;-73
2024/02/17 12:51:21;;;;;;;15.83;6.10;;;;;;;8.55;100.00;102984.44;10344753;27;20104;-70
2024/02/17 12:56:17;;;;;;;17.80;6.32;;;;;;;9.08;100.00;102972.13;10352581;28;20083;-70
2024/02/17 13:01:19;;;;;;;8.50;5.90;;;;;;;10.54;100.00;102972.28;10338980;28;20048;-70
2024/02/17 13:06:16;;;;;;;13.00;6.00;;;;;;;9.17;100.00;102970.63;10349470;27;20096;-71
2024/02/17 13:11:13;;;;;;;9.27;5.80;;;;;;;9.88;100.00;102976.06;10343341;27;20062;-71
2024/02/17 13:16:09;;;;;;;14.80;7.25;;;;;;;8.96;100.00;102983.16;10346326;27;20566;-70
2024/02/17 13:21:06;;;;;;;23.05;7.13;;;;;;;8.86;100.00;102983.00;10345379;27;20048;-70
2024/02/17 13:26:02;;;;;;;16.17;6.18;;;;;;;8.58;100.00;102994.84;10345087;27;20048;-70
2024/02/17 13:30:59;;;;;;;22.25;5.90;;;;;;;8.46;100.00;102996.84;10340195;27;20102;-71
2024/02/17 13:35:55;;;;;;;24.90;6.55;;;;;;;8.30;100.00;102998.44;10341469;27;20472;-71
2024/02/17 13:40:52;;;;;;;17.33;6.97;;;;;;;8.32;100.00;103009.94;10336211;27;20074;-70
2024/02/17 13:45:49;;;;;;;18.77;6.82;;;;;;;7.99;100.00;103025.16;10351299;27;20043;-70
2024/02/17 13:50:46;;;;;;;12.95;5.88;;;;;;;7.81;100.00;103045.25;10342786;27;20044;-71
2024/02/17 13:55:45;;;;;;;15.85;5.43;;;;;;;7.61;100.00;103051.09;10332716;27;20055;-72
2024/02/17 14:00:42;;;;;;;26.10;5.78;;;;;;;7.54;100.00;103064.00;10347653;27;20051;-71
2024/02/17 14:05:39;;;;;;;17.05;6.13;;;;;;;7.43;100.00;103065.69;10334726;27;20048;-71
2024/02/17 14:10:35;;;;;;;15.88;6.35;;;;;;;7.02;100.00;103069.41;10338787;27;20489;-70
2024/02/17 14:15:32;;;;;;;19.05;5.43;;;;;;;7.07;100.00;103078.50;10342179;27;20093;-71
2024/02/17 14:20:29;;;;;;;16.85;5.45;;;;;;;7.21;100.00;103070.91;10343752;27;20573;-71
2024/02/17 14:25:25;;;;;;;11.98;5.47;;;;;;;6.99;100.00;103097.06;10333302;27;20075;-72
2024/02/17 14:30:24;;;;;;;24.02;5.88;;;;;;;6.67;100.00;103097.38;10343014;27;20052;-72
2024/02/17 14:35:20;;;;;;;12.60;5.47;;;;;;;6.85;100.00;103118.22;10337850;27;20102;-72
2024/02/17 14:40:17;;;;;;;23.25;7.05;;;;;;;6.82;100.00;103118.66;10338424;28;20620;-72
2024/02/17 14:45:14;;;;;;;15.23;5.65;;;;;;;6.86;100.00;103131.56;10338112;27;20040;-72
2024/02/17 14:50:11;;;;;;;19.98;6.70;;;;;;;6.93;100.00;103143.16;10333130;28;20052;-73
2024/02/17 14:55:08;;;;;;;22.88;6.47;;;;;;;6.73;100.00;103142.66;10337599;27;20626;-72
2024/02/17 15:00:08;;;;;;;19.00;6.43;;;;;;;6.61;100.00;103144.50;10354515;27;20475;-71
2024/02/17 15:05:06;;;;;;;16.13;5.05;;;;;;;6.36;100.00;103158.22;10343381;27;20048;-72
2024/02/17 15:10:03;;;;;;;17.58;6.38;;;;;;;6.47;100.00;103154.75;10351061;27;20052;-72
2024/02/17 15:15:01;;;;;;;19.90;7.35;;;;;;;6.43;100.00;103164.41;10356184;28;20048;-72
2024/02/17 15:19:58;;;;;;;21.98;7.07;;;;;;;6.50;100.00;103176.88;10357815;28;20060;-72
2024/02/17 15:24:54;;;;;;;17.65;5.53;;;;;;;6.55;100.00;103183.50;10351244;27;20098;-72
2024/02/17 15:29:51;;;;;;;20.88;7.20;;;;;;;6.29;100.00;103180.09;10353818;27;20105;-72
2024/02/17 15:34:48;;;;;;;13.55;5.75;;;;;;;6.22;100.00;103168.44;10358722;27;20040;-71
2024/02/17 15:39:45;;;;;;;17.92;6.20;;;;;;;6.32;100.00;103168.75;10351045;27;20044;-71
2024/02/17 15:44:42;;;;;;;16.33;6.10;;;;;;;6.43;100.00;103176.13;10350138;27;20039;-72
2024/02/17 15:49:39;;;;;;;13.60;6.75;;;;;;;6.39;100.00;103177.63;10347147;27;20035;-72
2024/02/17 15:54:35;;;;;;;17.48;6.13;;;;;;;6.26;100.00;103185.94;10344018;27;20048;-72
2024/02/17 15:59:32;;;;;;;16.50;5.65;;;;;;;5.98;100.00;103189.22;10349090;27;20067;-72
2024/02/17 16:04:28;;;;;;;19.95;6.93;;;;;;;6.16;100.00;103201.97;10352263;28;20050;-72
2024/02/17 16:09:25;;;;;;;14.95;8.00;;;;;;;6.23;100.00;103202.72;10347467;27;20052;-72
2024/02/17 16:14:22;;;;;;;22.30;8.38;;;;;;;6.14;100.00;103210.34;10340047;27;20427;-72
2024/02/17 16:19:18;;;;;;;14.55;5.88;;;;;;;5.98;100.00;103200.91;10352086;27;20489;-72
2024/02/17 16:24:15;;;;;;;20.77;7.20;;;;;;;6.06;100.00;103225.06;10346659;27;20056;-71
2024/02/17 16:29:11;;;;;;;20.80;6.60;;;;;;;6.02;100.00;103223.84;10343776;27;20127;-71
2024/02/17 16:34:10;;;;;;;23.92;6.63;;;;;;;6.00;100.00;103230.56;10353421;27;20048;-72
2024/02/17 16:39:07;;;;;;;16.55;6.50;;;;;;;5.89;100.00;103237.53;10350953;27;20143;-71
2024/02/17 16:44:04;;;;;;;17.17;6.80;;;;;;;5.92;100.00;103242.53;10347923;27;20063;-71
2024/02/17 16:49:00;;;;;;;17.92;6.70;;;;;;;6.02;100.00;103240.13;10351656;27;20067;-72
2024/02/17 16:53:57;;;;;;;16.33;6.68;;;;;;;5.98;100.00;103241.63;10337152;28;20492;-72
2024/02/17 16:58:54;;;;;;;17.95;7.28;;;;;;;5.91;100.00;103240.84;10338157;27;20408;-72
2024/02/17 17:03:50;;;;;;;15.90;6.63;;;;;;;5.88;100.00;103244.03;10338511;27;20032;-72
2024/02/17 17:08:47;;;;;;;16.98;7.85;;;;;;;5.92;100.00;103239.81;10344468;27;20036;-72
2024/02/17 17:13:44;;;;;;;21.48;7.40;;;;;;;5.93;100.00;103235.19;10344164;27;20118;-73
2024/02/17 17:18:40;;;;;;;19.08;7.78;;;;;;;6.02;100.00;103250.19;10350782;27;20044;-69
2024/02/17 17:23:37;;;;;;;17.70;6.72;;;;;;;6.01;100.00;103256.66;10342950;27;20435;-72
2024/02/17 17:28:33;;;;;;;15.75;8.20;;;;;;;5.88;100.00;103263.84;10350968;27;20178;-72
2024/02/17 17:33:30;;;;;;;14.30;7.10;;;;;;;5.78;100.00;103266.25;10350522;27;20515;-72
2024/02/17 17:38:30;;;;;;;12.50;6.22;;;;;;;5.60;100.00;103264.31;10351801;27;20045;-70
2024/02/17 17:43:28;;;;;;;15.18;6.68;;;;;;;5.44;100.00;103270.31;10341808;27;20526;-71
2024/02/17 17:48:25;;;;;;;13.98;6.93;;;;;;;5.21;100.00;103260.84;10346179;27;20507;-71
2024/02/17 17:53:23;;;;;;;14.68;7.32;;;;;;;5.09;100.00;103259.91;10342336;27;20043;-71
2024/02/17 17:58:20;;;;;;;18.55;7.90;;;;;;;4.91;100.00;103276.06;10344650;27;20552;-70
2024/02/17 18:03:20;;;;;;;15.68;7.50;;;;;;;4.81;100.00;103277.38;10339634;27;20044;-71
2024/02/17 18:08:23;;;;;;;18.95;8.38;;;;;;;4.69;100.00;103289.94;10337525;27;20040;-70
2024/02/17 18:13:22;;;;;;;;;;;;;;;4.66;100.00;103301.19;10343212;27;20067;-71
2024/02/17 18:18:19;;;;;;;15.80;7.95;;;;;;;4.55;100.00;103310.00;10347694;27;20273;-70
2024/02/17 18:23:20;;;;;;;14.30;8.20;;;;;;;4.47;100.00;103302.13;10349476;27;20048;-71
2024/02/17 18:28:17;;;;;;;17.65;9.68;;;;;;;4.45;100.00;103309.63;10345209;27;20043;-71
2024/02/17 18:33:13;;;;;;;10.50;7.75;;;;;;;4.35;100.00;103310.91;10338386;27;20044;-71
2024/02/17 18:38:11;;;;;;;17.60;9.02;;;;;;;4.25;100.00;103309.66;10347637;27;20048;-70
2024/02/17 18:43:07;;;;;;;12.85;9.48;;;;;;;4.10;100.00;103313.44;10351801;27;20052;-71
2024/02/17 18:48:04;;;;;;;14.95;10.25;;;;;;;4.00;100.00;103313.88;10343539;27;20309;-71
2024/02/17 18:53:01;;;;;;;18.40;9.88;;;;;;;3.94;100.00;103319.28;10344804;27;20127;-70
2024/02/17 18:57:57;;;;;;;19.67;10.50;;;;;;;3.85;100.00;103326.78;10344305;27;20040;-70
2024/02/17 19:02:55;;;;;;;17.70;10.35;;;;;;;3.75;100.00;103337.19;10346013;27;20109;-70
2024/02/17 19:07:51;;;;;;;21.33;10.38;;;;;;;3.56;100.00;103339.69;10347146;27;20113;-70
2024/02/17 19:12:48;;;;;;;22.92;11.07;;;;;;;3.72;100.00;103348.44;10346410;27;20048;-71
2024/02/17 19:17:47;;;;;;;18.42;10.80;;;;;;;3.88;100.00;103341.81;10332737;27;20036;-71
2024/02/17 19:22:46;;;;;;;17.40;10.75;;;;;;;3.88;100.00;103345.34;10341663;27;20055;-70
2024/02/17 19:27:43;;;;;;;20.50;11.65;;;;;;;3.92;100.00;103354.72;10346563;27;20113;-70
2024/02/17 19:32:40;;;;;;;21.02;11.77;;;;;;;4.11;100.00;103363.03;10346118;27;20431;-71
2024/02/17 19:37:37;;;;;;;22.92;9.95;;;;;;;4.25;100.00;103353.84;10340939;27;20068;-71
2024/02/17 19:42:33;;;;;;;21.23;11.60;;;;;;;4.12;100.00;103360.09;10351689;27;20047;-70
2024/02/17 19:47:30;;;;;;;19.95;11.30;;;;;;;4.07;100.00;103372.59;10339776;27;20141;-71
2024/02/17 19:52:27;;;;;;;22.60;11.90;;;;;;;4.11;100.00;103380.09;10340752;27;20067;-70
2024/02/17 19:57:24;;;;;;;17.35;10.77;;;;;;;4.14;100.00;103378.84;10337483;28;20127;-70
2024/02/17 20:02:20;;;;;;;17.35;10.85;;;;;;;4.20;100.00;103383.41;10340479;28;20066;-70
2024/02/17 20:07:17;;;;;;;16.05;11.10;;;;;;;4.27;100.00;103388.81;10338918;27;20158;-70
2024/02/17 20:12:14;;;;;;;18.60;10.55;;;;;;;4.37;100.00;103392.78;10344209;27;20044;-70
2024/02/17 20:17:10;;;;;;;18.02;10.35;;;;;;;4.30;100.00;103393.84;10343013;27;20036;-70
2024/02/17 20:22:07;;;;;;;16.27;10.77;;;;;;;4.19;100.00;103395.31;10334240;27;20459;-69
2024/02/17 20:27:03;;;;;;;24.67;11.65;;;;;;;3.94;100.00;103406.75;10341952;27;20071;-69
2024/02/17 20:32:00;;;;;;;19.38;11.30;;;;;;;3.84;100.00;103416.31;10341545;27;20529;-69
2024/02/17 20:36:58;;;;;;;19.40;10.93;;;;;;;3.69;100.00;103408.38;10353095;27;20129;-68
2024/02/17 20:41:54;;;;;;;15.73;10.88;;;;;;;3.55;100.00;103405.66;10342544;27;20040;-69
2024/02/17 20:46:51;;;;;;;19.55;11.60;;;;;;;3.39;100.00;103416.84;10341701;27;20059;-69
2024/02/17 20:51:48;;;;;;;28.08;12.32;;;;;;;3.27;100.00;103407.66;10329676;28;20055;-69
2024/02/17 20:56:45;;;;;;;20.40;12.88;;;;;;;3.15;100.00;103405.53;10345249;27;20257;-69
2024/02/17 21:01:42;;;;;;;17.88;12.25;;;;;;;3.09;100.00;103397.41;10349818;27;20530;-69
2024/02/17 21:06:39;;;;;;;18.63;12.23;;;;;;;2.98;100.00;103401.50;10343790;27;20036;-69
2024/02/17 21:11:35;;;;;;;21.40;12.27;;;;;;;2.92;100.00;103402.31;10340610;27;20040;-69
2024/02/17 21:16:32;;;;;;;17.85;12.55;;;;;;;2.84;100.00;103395.19;10348311;27;20085;-69
2024/02/17 21:21:30;;;;;;;18.70;12.40;;;;;;;2.80;100.00;103398.50;10346486;27;20044;-69
2024/02/17 21:26:27;;;;;;;17.80;12.48;;;;;;;2.72;100.00;103397.63;10343014;27;20047;-69
2024/02/17 21:31:23;;;;;;;19.63;13.60;;;;;;;2.70;100.00;103399.69;10344984;27;20039;-69
2024/02/17 21:36:21;;;;;;;25.73;13.13;;;;;;;2.64;100.00;103395.09;10339654;27;20471;-69
2024/02/17 21:41:19;;;;;;;21.92;13.00;;;;;;;2.61;100.00;103379.28;10347257;27;20074;-69
2024/02/17 21:46:15;;;;;;;25.05;14.25;;;;;;;2.64;100.00;103381.56;10344645;27;20071;-69
2024/02/17 21:51:16;;;;;;;27.83;14.75;;;;;;;2.59;100.00;103386.75;10328773;27;20762;-69
2024/02/17 21:56:13;;;;;;;29.35;19.40;;;;;;;2.58;100.00;103395.91;10348104;27;20131;-68
2024/02/17 22:01:10;;;;;;;40.08;20.73;;;;;;;2.58;100.00;103393.19;10349309;27;20058;-69
2024/02/17 22:06:08;;;;;;;26.38;16.23;;;;;;;2.63;100.00;103388.03;10338282;27;20488;-69
2024/02/17 22:11:05;;;;;;;28.52;16.33;;;;;;;2.69;100.00;103381.84;10336638;27;20048;-69
2024/02/17 22:16:02;;;;;;;25.95;14.88;;;;;;;2.71;100.00;103385.16;10340246;27;20050;-69
2024/02/17 22:20:59;;;;;;;25.40;15.02;;;;;;;2.68;100.00;103374.75;10342636;27;20052;-69
2024/02/17 22:25:55;;;;;;;22.45;13.45;;;;;;;2.65;100.00;103375.16;10331760;27;20055;-69
2024/02/17 22:30:52;;;;;;;22.80;13.80;;;;;;;2.62;100.00;103374.72;10348184;27;20048;-69
2024/02/17 22:35:48;;;;;;;24.77;14.15;;;;;;;2.61;100.00;103367.66;10330859;28;20044;-69